Accueil
METAR-TAF:

METAR-TAF

Aéroports :

Aéroport de Bari

Bari, Italie

latitude: 41-08N, longitude: 016-47E, altitude: 34 m

Observation

Le bulletin a été fait il y a 19 minutes, à 23:20 UTC
Vent 5 kt de ouest/sud-ouest
Température 23°C
Humidité 50%
Pression 1014 hPa
Visibilité 10 km ou plus
pas de nuages en-dessous de 1500 mètres et pas de cumulonimbus.

METAR: LIBD 032320Z 25005KT CAVOK 23/12 Q1014

Heure: 01:39 (23:39 UTC)

Prévision

Le bulletin a été fait il y a 6 heures et 39 minutes, à 17:00 UTC
Prévision valable du 03 à 18 UTC au 04 à 18 UTC
Vent 10 kt de ouest
Visibilité 10 km ou plus
Quelques nuages à une hauteur de 3000 ft
Evoluant progressivement
du 04 à 08 UTC au 04 à 10 UTC
Vent 12 kt de est
Evoluant progressivement
du 04 à 14 UTC au 04 à 16 UTC
Vent 10 kt de sud/sud-est

TAF: LIBD 031700Z 0318/0418 27010KT 9999 FEW030 BECMG 0408/0410 08012KT BECMG 0414/0416 16010KT

Observations et prévisions météorologiques de plus de 4000 aéroports (messages METAR et TAF).

Les stations disponibles sont représentées par des disques jaunes et rouges sur la carte.

Passer la souris dessus pour voir le nom de la station.

Cliquer dessus pour voir les observations et prévisions météorologiques.

Pour changer de carte: cliquez sur les boutons verts avec une croix noire pour zoomer, sur le bouton vert avec un tiret pour effectuer un zoom arrière, ou sur les flèches vertes pour les cartes adjacentes.


METAR-TAF: